sensor_id;sensor_type;location;lat;lon;timestamp;temperature;humidity
52621;DHT22;38515;53.160;6.990;2023-09-08T00:01:50;19.70;99.90
52621;DHT22;38515;53.160;6.990;2023-09-08T00:04:16;19.70;99.90
52621;DHT22;38515;53.160;6.990;2023-09-08T00:06:42;19.60;99.90
52621;DHT22;38515;53.160;6.990;2023-09-08T00:09:08;19.60;99.90
52621;DHT22;38515;53.160;6.990;2023-09-08T00:11:34;19.60;99.90
52621;DHT22;38515;53.160;6.990;2023-09-08T00:14:00;19.50;99.90
52621;DHT22;38515;53.160;6.990;2023-09-08T00:16:26;19.50;99.90
52621;DHT22;38515;53.160;6.990;2023-09-08T00:18:55;19.50;99.90
52621;DHT22;38515;53.160;6.990;2023-09-08T00:21:21;19.50;99.90
52621;DHT22;38515;53.160;6.990;2023-09-08T00:23:46;19.40;99.90
52621;DHT22;38515;53.160;6.990;2023-09-08T00:26:12;19.40;99.90
52621;DHT22;38515;53.160;6.990;2023-09-08T00:28:38;19.30;99.90
52621;DHT22;38515;53.160;6.990;2023-09-08T00:31:04;19.30;99.90
52621;DHT22;38515;53.160;6.990;2023-09-08T00:33:30;19.20;99.90
52621;DHT22;38515;53.160;6.990;2023-09-08T00:35:56;19.20;99.90
52621;DHT22;38515;53.160;6.990;2023-09-08T00:38:23;19.10;99.90
52621;DHT22;38515;53.160;6.990;2023-09-08T00:40:49;19.10;99.90
52621;DHT22;38515;53.160;6.990;2023-09-08T00:43:17;19.00;99.90
52621;DHT22;38515;53.160;6.990;2023-09-08T00:45:43;19.00;99.90
52621;DHT22;38515;53.160;6.990;2023-09-08T00:48:11;19.00;99.90
52621;DHT22;38515;53.160;6.990;2023-09-08T00:50:38;18.90;99.90
52621;DHT22;38515;53.160;6.990;2023-09-08T00:53:05;18.80;99.90
52621;DHT22;38515;53.160;6.990;2023-09-08T00:55:31;18.90;99.90
52621;DHT22;38515;53.160;6.990;2023-09-08T00:57:58;18.80;99.90
52621;DHT22;38515;53.160;6.990;2023-09-08T01:00:25;18.80;99.90
52621;DHT22;38515;53.160;6.990;2023-09-08T01:02:51;18.80;99.90
52621;DHT22;38515;53.160;6.990;2023-09-08T01:05:17;18.70;99.90
52621;DHT22;38515;53.160;6.990;2023-09-08T01:07:45;18.70;99.90
52621;DHT22;38515;53.160;6.990;2023-09-08T01:10:11;18.60;99.90
52621;DHT22;38515;53.160;6.990;2023-09-08T01:12:37;18.60;99.90
52621;DHT22;38515;53.160;6.990;2023-09-08T01:15:04;18.50;99.90
52621;DHT22;38515;53.160;6.990;2023-09-08T01:17:31;18.50;99.90
52621;DHT22;38515;53.160;6.990;2023-09-08T01:23:17;18.40;99.90
52621;DHT22;38515;53.160;6.990;2023-09-08T01:25:55;18.40;99.90
52621;DHT22;38515;53.160;6.990;2023-09-08T01:28:22;18.30;99.90
52621;DHT22;38515;53.160;6.990;2023-09-08T01:30:50;18.30;99.90
52621;DHT22;38515;53.160;6.990;2023-09-08T01:33:16;18.30;99.90
52621;DHT22;38515;53.160;6.990;2023-09-08T01:35:43;18.20;99.90
52621;DHT22;38515;53.160;6.990;2023-09-08T01:38:09;18.20;99.90
52621;DHT22;38515;53.160;6.990;2023-09-08T01:40:35;18.20;99.90
52621;DHT22;38515;53.160;6.990;2023-09-08T01:43:01;18.20;99.90
52621;DHT22;38515;53.160;6.990;2023-09-08T01:45:26;18.10;99.90
52621;DHT22;38515;53.160;6.990;2023-09-08T01:47:52;18.10;99.90
52621;DHT22;38515;53.160;6.990;2023-09-08T01:50:18;18.10;99.90
52621;DHT22;38515;53.160;6.990;2023-09-08T01:52:48;18.00;99.90
52621;DHT22;38515;53.160;6.990;2023-09-08T01:55:14;18.00;99.90
52621;DHT22;38515;53.160;6.990;2023-09-08T01:57:42;18.00;99.90
52621;DHT22;38515;53.160;6.990;2023-09-08T02:00:11;18.00;99.90
52621;DHT22;38515;53.160;6.990;2023-09-08T02:02:36;18.00;99.90
52621;DHT22;38515;53.160;6.990;2023-09-08T02:05:03;17.90;99.90
52621;DHT22;38515;53.160;6.990;2023-09-08T02:07:29;17.90;99.90
52621;DHT22;38515;53.160;6.990;2023-09-08T02:09:55;17.90;99.90
52621;DHT22;38515;53.160;6.990;2023-09-08T02:12:21;17.90;99.90
52621;DHT22;38515;53.160;6.990;2023-09-08T02:14:47;17.80;99.90
52621;DHT22;38515;53.160;6.990;2023-09-08T02:17:13;17.80;99.90
52621;DHT22;38515;53.160;6.990;2023-09-08T02:19:39;17.80;99.90
52621;DHT22;38515;53.160;6.990;2023-09-08T02:22:05;17.70;99.90
52621;DHT22;38515;53.160;6.990;2023-09-08T02:24:30;17.70;99.90
52621;DHT22;38515;53.160;6.990;2023-09-08T02:26:56;17.70;99.90
52621;DHT22;38515;53.160;6.990;2023-09-08T02:29:22;17.60;99.90
52621;DHT22;38515;53.160;6.990;2023-09-08T02:31:48;17.60;99.90
52621;DHT22;38515;53.160;6.990;2023-09-08T02:34:14;17.50;99.90
52621;DHT22;38515;53.160;6.990;2023-09-08T02:36:40;17.40;99.90
52621;DHT22;38515;53.160;6.990;2023-09-08T02:39:06;17.30;99.90
52621;DHT22;38515;53.160;6.990;2023-09-08T02:41:33;17.30;99.90
52621;DHT22;38515;53.160;6.990;2023-09-08T02:43:59;17.20;99.90
52621;DHT22;38515;53.160;6.990;2023-09-08T02:46:25;17.20;99.90
52621;DHT22;38515;53.160;6.990;2023-09-08T02:48:51;17.10;99.90
52621;DHT22;38515;53.160;6.990;2023-09-08T02:51:18;17.00;99.90
52621;DHT22;38515;53.160;6.990;2023-09-08T02:53:44;17.00;99.90
52621;DHT22;38515;53.160;6.990;2023-09-08T02:56:10;17.00;99.90
52621;DHT22;38515;53.160;6.990;2023-09-08T02:58:35;16.90;99.90
52621;DHT22;38515;53.160;6.990;2023-09-08T03:03:37;16.90;99.90
52621;DHT22;38515;53.160;6.990;2023-09-08T03:06:03;16.80;99.90
52621;DHT22;38515;53.160;6.990;2023-09-08T03:08:29;16.80;99.90
52621;DHT22;38515;53.160;6.990;2023-09-08T03:11:01;16.80;99.90
52621;DHT22;38515;53.160;6.990;2023-09-08T03:13:26;16.80;99.90
52621;DHT22;38515;53.160;6.990;2023-09-08T03:15:54;16.70;99.90
52621;DHT22;38515;53.160;6.990;2023-09-08T03:18:20;16.60;99.90
52621;DHT22;38515;53.160;6.990;2023-09-08T03:20:50;16.60;99.90
52621;DHT22;38515;53.160;6.990;2023-09-08T03:23:16;16.60;99.90
52621;DHT22;38515;53.160;6.990;2023-09-08T03:25:43;16.60;99.90
52621;DHT22;38515;53.160;6.990;2023-09-08T03:28:09;16.60;99.90
52621;DHT22;38515;53.160;6.990;2023-09-08T03:30:35;16.50;99.90
52621;DHT22;38515;53.160;6.990;2023-09-08T03:33:01;16.40;99.90
52621;DHT22;38515;53.160;6.990;2023-09-08T03:35:27;16.50;99.90
52621;DHT22;38515;53.160;6.990;2023-09-08T03:37:52;16.40;99.90
52621;DHT22;38515;53.160;6.990;2023-09-08T03:40:18;16.40;99.90
52621;DHT22;38515;53.160;6.990;2023-09-08T03:42:44;16.40;99.90
52621;DHT22;38515;53.160;6.990;2023-09-08T03:45:10;16.40;99.90
52621;DHT22;38515;53.160;6.990;2023-09-08T03:47:36;16.40;99.90
52621;DHT22;38515;53.160;6.990;2023-09-08T03:50:03;16.40;99.90
52621;DHT22;38515;53.160;6.990;2023-09-08T03:52:28;16.40;99.90
52621;DHT22;38515;53.160;6.990;2023-09-08T03:54:54;16.40;99.90
52621;DHT22;38515;53.160;6.990;2023-09-08T03:57:20;16.40;99.90
52621;DHT22;38515;53.160;6.990;2023-09-08T03:59:46;16.40;99.90
52621;DHT22;38515;53.160;6.990;2023-09-08T04:02:12;16.40;99.90
52621;DHT22;38515;53.160;6.990;2023-09-08T04:04:37;16.30;99.90
52621;DHT22;38515;53.160;6.990;2023-09-08T04:07:03;16.30;99.90
52621;DHT22;38515;53.160;6.990;2023-09-08T04:09:29;16.30;99.90
52621;DHT22;38515;53.160;6.990;2023-09-08T04:11:57;16.30;99.90
52621;DHT22;38515;53.160;6.990;2023-09-08T04:14:23;16.20;99.90
52621;DHT22;38515;53.160;6.990;2023-09-08T04:16:53;16.20;99.90
52621;DHT22;38515;53.160;6.990;2023-09-08T04:19:19;16.10;99.90
52621;DHT22;38515;53.160;6.990;2023-09-08T04:21:44;16.10;99.90
52621;DHT22;38515;53.160;6.990;2023-09-08T04:24:10;16.00;99.90
52621;DHT22;38515;53.160;6.990;2023-09-08T04:26:37;15.90;99.90
52621;DHT22;38515;53.160;6.990;2023-09-08T04:29:02;15.90;99.90
52621;DHT22;38515;53.160;6.990;2023-09-08T04:31:28;15.90;99.90
52621;DHT22;38515;53.160;6.990;2023-09-08T04:33:54;15.90;99.90
52621;DHT22;38515;53.160;6.990;2023-09-08T04:36:20;15.80;99.90
52621;DHT22;38515;53.160;6.990;2023-09-08T04:38:46;15.70;99.90
52621;DHT22;38515;53.160;6.990;2023-09-08T04:41:12;15.70;99.90
52621;DHT22;38515;53.160;6.990;2023-09-08T04:43:38;15.60;99.90
52621;DHT22;38515;53.160;6.990;2023-09-08T04:46:03;15.60;99.90
52621;DHT22;38515;53.160;6.990;2023-09-08T04:48:30;15.60;99.90
52621;DHT22;38515;53.160;6.990;2023-09-08T04:50:57;15.50;99.90
52621;DHT22;38515;53.160;6.990;2023-09-08T04:53:22;15.50;99.90
52621;DHT22;38515;53.160;6.990;2023-09-08T04:55:49;15.50;99.90
52621;DHT22;38515;53.160;6.990;2023-09-08T04:58:15;15.50;99.90
52621;DHT22;38515;53.160;6.990;2023-09-08T05:00:41;15.50;99.90
52621;DHT22;38515;53.160;6.990;2023-09-08T05:03:06;15.40;99.90
52621;DHT22;38515;53.160;6.990;2023-09-08T05:05:32;15.40;99.90
52621;DHT22;38515;53.160;6.990;2023-09-08T05:07:58;15.40;99.90
52621;DHT22;38515;53.160;6.990;2023-09-08T05:10:24;15.30;99.90
52621;DHT22;38515;53.160;6.990;2023-09-08T05:12:51;15.40;99.90
52621;DHT22;38515;53.160;6.990;2023-09-08T05:15:17;15.40;99.90
52621;DHT22;38515;53.160;6.990;2023-09-08T05:17:43;15.40;99.90
52621;DHT22;38515;53.160;6.990;2023-09-08T05:20:10;15.40;99.90
52621;DHT22;38515;53.160;6.990;2023-09-08T05:22:35;15.40;99.90
52621;DHT22;38515;53.160;6.990;2023-09-08T05:25:02;15.40;99.90
52621;DHT22;38515;53.160;6.990;2023-09-08T05:27:28;15.40;99.90
52621;DHT22;38515;53.160;6.990;2023-09-08T05:29:54;15.50;99.90
52621;DHT22;38515;53.160;6.990;2023-09-08T05:32:20;15.50;99.90
52621;DHT22;38515;53.160;6.990;2023-09-08T05:34:46;15.50;99.90
52621;DHT22;38515;53.160;6.990;2023-09-08T05:37:12;15.60;99.90
52621;DHT22;38515;53.160;6.990;2023-09-08T05:39:38;15.60;99.90
52621;DHT22;38515;53.160;6.990;2023-09-08T05:42:04;15.70;99.90
52621;DHT22;38515;53.160;6.990;2023-09-08T05:44:29;15.80;99.90
52621;DHT22;38515;53.160;6.990;2023-09-08T05:46:55;15.80;99.90
52621;DHT22;38515;53.160;6.990;2023-09-08T05:49:21;15.90;99.90
52621;DHT22;38515;53.160;6.990;2023-09-08T05:51:47;16.00;99.90
52621;DHT22;38515;53.160;6.990;2023-09-08T05:54:13;16.00;99.90
52621;DHT22;38515;53.160;6.990;2023-09-08T05:56:39;16.10;99.90
52621;DHT22;38515;53.160;6.990;2023-09-08T05:59:05;16.20;99.90
52621;DHT22;38515;53.160;6.990;2023-09-08T06:01:31;16.30;99.90
52621;DHT22;38515;53.160;6.990;2023-09-08T06:03:58;16.40;99.90
52621;DHT22;38515;53.160;6.990;2023-09-08T06:06:24;16.50;99.90
52621;DHT22;38515;53.160;6.990;2023-09-08T06:08:51;16.60;99.90
52621;DHT22;38515;53.160;6.990;2023-09-08T06:11:17;16.80;99.90
52621;DHT22;38515;53.160;6.990;2023-09-08T06:13:42;17.10;99.90
52621;DHT22;38515;53.160;6.990;2023-09-08T06:16:08;17.70;99.90
52621;DHT22;38515;53.160;6.990;2023-09-08T06:18:34;18.40;99.90
52621;DHT22;38515;53.160;6.990;2023-09-08T06:21:08;19.00;99.90
52621;DHT22;38515;53.160;6.990;2023-09-08T06:23:35;19.60;99.90
52621;DHT22;38515;53.160;6.990;2023-09-08T06:26:01;20.00;99.90
52621;DHT22;38515;53.160;6.990;2023-09-08T06:28:30;20.30;99.90
52621;DHT22;38515;53.160;6.990;2023-09-08T06:30:55;20.40;99.90
52621;DHT22;38515;53.160;6.990;2023-09-08T06:33:21;20.50;99.90
52621;DHT22;38515;53.160;6.990;2023-09-08T06:35:50;20.60;99.90
52621;DHT22;38515;53.160;6.990;2023-09-08T06:38:16;20.70;99.90
52621;DHT22;38515;53.160;6.990;2023-09-08T06:40:42;20.80;99.90
52621;DHT22;38515;53.160;6.990;2023-09-08T06:43:08;20.80;99.90
52621;DHT22;38515;53.160;6.990;2023-09-08T06:45:34;20.80;99.90
52621;DHT22;38515;53.160;6.990;2023-09-08T06:47:59;20.90;99.90
52621;DHT22;38515;53.160;6.990;2023-09-08T06:50:25;21.00;99.90
52621;DHT22;38515;53.160;6.990;2023-09-08T06:52:52;21.00;99.90
52621;DHT22;38515;53.160;6.990;2023-09-08T06:55:18;21.00;99.90
52621;DHT22;38515;53.160;6.990;2023-09-08T06:57:46;21.10;99.90
52621;DHT22;38515;53.160;6.990;2023-09-08T07:00:12;21.10;99.90
52621;DHT22;38515;53.160;6.990;2023-09-08T07:02:39;21.20;99.90
52621;DHT22;38515;53.160;6.990;2023-09-08T07:05:05;21.10;99.90
52621;DHT22;38515;53.160;6.990;2023-09-08T07:07:36;21.20;99.90
52621;DHT22;38515;53.160;6.990;2023-09-08T07:10:05;21.10;99.90
52621;DHT22;38515;53.160;6.990;2023-09-08T07:12:31;21.20;99.90
52621;DHT22;38515;53.160;6.990;2023-09-08T07:14:57;21.10;99.90
52621;DHT22;38515;53.160;6.990;2023-09-08T07:17:23;21.10;99.90
52621;DHT22;38515;53.160;6.990;2023-09-08T07:19:52;21.30;99.90
52621;DHT22;38515;53.160;6.990;2023-09-08T07:22:18;21.20;99.90
52621;DHT22;38515;53.160;6.990;2023-09-08T07:24:44;21.30;99.90
52621;DHT22;38515;53.160;6.990;2023-09-08T07:27:11;21.30;99.90
52621;DHT22;38515;53.160;6.990;2023-09-08T07:29:40;21.40;99.90
52621;DHT22;38515;53.160;6.990;2023-09-08T07:32:06;21.50;99.90
52621;DHT22;38515;53.160;6.990;2023-09-08T07:34:32;21.60;99.90
52621;DHT22;38515;53.160;6.990;2023-09-08T07:37:00;21.70;99.90
52621;DHT22;38515;53.160;6.990;2023-09-08T07:39:26;21.80;99.90
52621;DHT22;38515;53.160;6.990;2023-09-08T07:41:52;22.10;99.90
52621;DHT22;38515;53.160;6.990;2023-09-08T07:44:19;22.20;99.90
52621;DHT22;38515;53.160;6.990;2023-09-08T07:46:45;22.30;99.90
52621;DHT22;38515;53.160;6.990;2023-09-08T07:49:14;22.40;99.90
52621;DHT22;38515;53.160;6.990;2023-09-08T07:51:41;22.40;99.90
52621;DHT22;38515;53.160;6.990;2023-09-08T07:54:06;22.50;99.90
52621;DHT22;38515;53.160;6.990;2023-09-08T07:56:32;22.60;99.90
52621;DHT22;38515;53.160;6.990;2023-09-08T07:58:58;22.60;99.90
52621;DHT22;38515;53.160;6.990;2023-09-08T08:01:24;22.70;99.90
52621;DHT22;38515;53.160;6.990;2023-09-08T08:03:50;22.90;99.90
52621;DHT22;38515;53.160;6.990;2023-09-08T08:06:16;23.00;99.90
52621;DHT22;38515;53.160;6.990;2023-09-08T08:08:42;23.10;99.90
52621;DHT22;38515;53.160;6.990;2023-09-08T08:11:12;23.20;99.90
52621;DHT22;38515;53.160;6.990;2023-09-08T08:13:39;23.40;99.90
52621;DHT22;38515;53.160;6.990;2023-09-08T08:16:04;23.40;99.90
52621;DHT22;38515;53.160;6.990;2023-09-08T08:18:30;23.50;99.90
52621;DHT22;38515;53.160;6.990;2023-09-08T08:20:56;23.50;99.90
52621;DHT22;38515;53.160;6.990;2023-09-08T08:23:22;23.50;99.90
52621;DHT22;38515;53.160;6.990;2023-09-08T08:25:51;23.60;99.90
52621;DHT22;38515;53.160;6.990;2023-09-08T08:28:17;23.60;99.90
52621;DHT22;38515;53.160;6.990;2023-09-08T08:30:43;23.60;99.90
52621;DHT22;38515;53.160;6.990;2023-09-08T08:33:09;23.70;99.90
52621;DHT22;38515;53.160;6.990;2023-09-08T08:35:36;23.70;99.90
52621;DHT22;38515;53.160;6.990;2023-09-08T08:38:02;23.80;99.90
52621;DHT22;38515;53.160;6.990;2023-09-08T08:40:28;23.90;99.90
52621;DHT22;38515;53.160;6.990;2023-09-08T08:42:57;24.00;99.90
52621;DHT22;38515;53.160;6.990;2023-09-08T08:45:24;24.20;99.90
52621;DHT22;38515;53.160;6.990;2023-09-08T08:47:53;24.30;99.90
52621;DHT22;38515;53.160;6.990;2023-09-08T08:50:20;24.40;99.90
52621;DHT22;38515;53.160;6.990;2023-09-08T08:52:46;24.50;99.90
52621;DHT22;38515;53.160;6.990;2023-09-08T08:55:13;24.80;99.90
52621;DHT22;38515;53.160;6.990;2023-09-08T08:57:41;24.90;99.90
52621;DHT22;38515;53.160;6.990;2023-09-08T09:00:08;25.10;99.90
52621;DHT22;38515;53.160;6.990;2023-09-08T09:02:39;25.20;99.90
52621;DHT22;38515;53.160;6.990;2023-09-08T09:05:14;25.30;99.90
52621;DHT22;38515;53.160;6.990;2023-09-08T09:07:42;25.40;99.90
52621;DHT22;38515;53.160;6.990;2023-09-08T09:10:08;25.50;99.90
52621;DHT22;38515;53.160;6.990;2023-09-08T09:12:38;25.60;99.90
52621;DHT22;38515;53.160;6.990;2023-09-08T09:15:04;25.60;99.90
52621;DHT22;38515;53.160;6.990;2023-09-08T09:17:33;25.70;99.90
52621;DHT22;38515;53.160;6.990;2023-09-08T09:20:16;25.70;99.90
52621;DHT22;38515;53.160;6.990;2023-09-08T09:22:47;25.80;99.90
52621;DHT22;38515;53.160;6.990;2023-09-08T09:25:24;25.90;99.90
52621;DHT22;38515;53.160;6.990;2023-09-08T09:27:52;25.90;99.90
52621;DHT22;38515;53.160;6.990;2023-09-08T09:30:18;26.00;99.90
52621;DHT22;38515;53.160;6.990;2023-09-08T09:33:01;26.10;99.90
52621;DHT22;38515;53.160;6.990;2023-09-08T09:35:49;26.20;99.90
52621;DHT22;38515;53.160;6.990;2023-09-08T09:38:15;26.30;99.90
52621;DHT22;38515;53.160;6.990;2023-09-08T09:40:53;26.40;99.90
52621;DHT22;38515;53.160;6.990;2023-09-08T09:43:21;26.50;99.90
52621;DHT22;38515;53.160;6.990;2023-09-08T09:45:48;26.50;99.90
52621;DHT22;38515;53.160;6.990;2023-09-08T09:48:14;26.50;99.90
52621;DHT22;38515;53.160;6.990;2023-09-08T09:50:41;26.50;99.90
52621;DHT22;38515;53.160;6.990;2023-09-08T09:53:14;26.50;99.90
52621;DHT22;38515;53.160;6.990;2023-09-08T09:55:41;26.50;99.90
52621;DHT22;38515;53.160;6.990;2023-09-08T09:58:08;26.50;99.90
52621;DHT22;38515;53.160;6.990;2023-09-08T10:00:36;26.60;99.90
52621;DHT22;38515;53.160;6.990;2023-09-08T10:03:04;26.60;99.90
52621;DHT22;38515;53.160;6.990;2023-09-08T10:05:30;26.70;99.90
52621;DHT22;38515;53.160;6.990;2023-09-08T10:07:56;26.80;99.90
52621;DHT22;38515;53.160;6.990;2023-09-08T10:10:23;26.90;99.90
52621;DHT22;38515;53.160;6.990;2023-09-08T10:12:56;27.00;99.90
52621;DHT22;38515;53.160;6.990;2023-09-08T10:15:24;27.10;99.90
52621;DHT22;38515;53.160;6.990;2023-09-08T10:17:55;27.10;99.90
52621;DHT22;38515;53.160;6.990;2023-09-08T10:20:23;27.10;99.90
52621;DHT22;38515;53.160;6.990;2023-09-08T10:22:54;27.10;99.90
52621;DHT22;38515;53.160;6.990;2023-09-08T10:25:24;27.10;99.90
52621;DHT22;38515;53.160;6.990;2023-09-08T10:27:50;27.10;99.90
52621;DHT22;38515;53.160;6.990;2023-09-08T10:30:16;27.20;99.90
52621;DHT22;38515;53.160;6.990;2023-09-08T10:32:43;27.30;99.90
52621;DHT22;38515;53.160;6.990;2023-09-08T10:35:10;27.40;99.90
52621;DHT22;38515;53.160;6.990;2023-09-08T10:37:36;27.40;99.90
52621;DHT22;38515;53.160;6.990;2023-09-08T10:40:22;27.50;99.90
52621;DHT22;38515;53.160;6.990;2023-09-08T10:42:49;27.60;99.10
52621;DHT22;38515;53.160;6.990;2023-09-08T10:45:17;27.50;98.60
52621;DHT22;38515;53.160;6.990;2023-09-08T10:50:18;27.50;98.60
52621;DHT22;38515;53.160;6.990;2023-09-08T10:52:45;27.50;99.10
52621;DHT22;38515;53.160;6.990;2023-09-08T10:55:36;27.60;98.80
52621;DHT22;38515;53.160;6.990;2023-09-08T10:58:04;27.50;97.70
52621;DHT22;38515;53.160;6.990;2023-09-08T11:00:46;27.50;97.90
52621;DHT22;38515;53.160;6.990;2023-09-08T11:03:24;27.50;97.00
52621;DHT22;38515;53.160;6.990;2023-09-08T11:05:51;27.40;98.00
52621;DHT22;38515;53.160;6.990;2023-09-08T11:08:18;27.40;97.90
52621;DHT22;38515;53.160;6.990;2023-09-08T11:10:44;27.30;98.00
52621;DHT22;38515;53.160;6.990;2023-09-08T11:13:10;27.40;98.00
52621;DHT22;38515;53.160;6.990;2023-09-08T11:15:37;27.40;98.00
52621;DHT22;38515;53.160;6.990;2023-09-08T11:18:06;27.40;98.00
52621;DHT22;38515;53.160;6.990;2023-09-08T11:20:34;27.40;97.60
52621;DHT22;38515;53.160;6.990;2023-09-08T11:23:00;27.40;97.90
52621;DHT22;38515;53.160;6.990;2023-09-08T11:25:26;27.50;97.40
52621;DHT22;38515;53.160;6.990;2023-09-08T11:27:52;27.50;97.70
52621;DHT22;38515;53.160;6.990;2023-09-08T11:30:18;27.60;97.30
52621;DHT22;38515;53.160;6.990;2023-09-08T11:32:44;27.70;97.80
52621;DHT22;38515;53.160;6.990;2023-09-08T11:35:10;27.70;96.60
52621;DHT22;38515;53.160;6.990;2023-09-08T11:37:37;27.70;96.70
52621;DHT22;38515;53.160;6.990;2023-09-08T11:40:04;27.70;96.90
52621;DHT22;38515;53.160;6.990;2023-09-08T11:42:41;27.80;96.70
52621;DHT22;38515;53.160;6.990;2023-09-08T11:45:14;27.90;96.60
52621;DHT22;38515;53.160;6.990;2023-09-08T11:47:41;27.80;96.70
52621;DHT22;38515;53.160;6.990;2023-09-08T11:50:09;27.90;97.30
52621;DHT22;38515;53.160;6.990;2023-09-08T11:52:37;27.90;95.90
52621;DHT22;38515;53.160;6.990;2023-09-08T11:55:05;27.90;96.40
52621;DHT22;38515;53.160;6.990;2023-09-08T11:57:32;28.10;96.80
52621;DHT22;38515;53.160;6.990;2023-09-08T11:59:59;28.10;96.00
52621;DHT22;38515;53.160;6.990;2023-09-08T12:02:25;28.10;95.80
52621;DHT22;38515;53.160;6.990;2023-09-08T12:04:53;28.20;96.10
52621;DHT22;38515;53.160;6.990;2023-09-08T12:07:20;28.20;95.50
52621;DHT22;38515;53.160;6.990;2023-09-08T12:09:45;28.30;95.50
52621;DHT22;38515;53.160;6.990;2023-09-08T12:12:12;28.30;95.00
52621;DHT22;38515;53.160;6.990;2023-09-08T12:14:42;28.30;95.00
52621;DHT22;38515;53.160;6.990;2023-09-08T12:17:08;28.30;95.00
52621;DHT22;38515;53.160;6.990;2023-09-08T12:19:34;28.30;95.70
52621;DHT22;38515;53.160;6.990;2023-09-08T12:22:04;28.40;95.70
52621;DHT22;38515;53.160;6.990;2023-09-08T12:27:25;28.50;94.80
52621;DHT22;38515;53.160;6.990;2023-09-08T12:30:02;28.40;94.30
52621;DHT22;38515;53.160;6.990;2023-09-08T12:32:31;28.40;94.20
52621;DHT22;38515;53.160;6.990;2023-09-08T12:35:03;28.40;94.10
52621;DHT22;38515;53.160;6.990;2023-09-08T12:37:29;28.40;94.10
52621;DHT22;38515;53.160;6.990;2023-09-08T12:39:57;28.50;93.70
52621;DHT22;38515;53.160;6.990;2023-09-08T12:42:23;28.40;93.70
52621;DHT22;38515;53.160;6.990;2023-09-08T12:44:55;28.40;94.20
52621;DHT22;38515;53.160;6.990;2023-09-08T12:47:21;28.50;93.90
52621;DHT22;38515;53.160;6.990;2023-09-08T12:49:48;28.50;93.60
52621;DHT22;38515;53.160;6.990;2023-09-08T12:52:14;28.50;93.90
52621;DHT22;38515;53.160;6.990;2023-09-08T12:54:40;28.50;94.30
52621;DHT22;38515;53.160;6.990;2023-09-08T12:57:06;28.60;94.70
52621;DHT22;38515;53.160;6.990;2023-09-08T12:59:31;28.50;93.80
52621;DHT22;38515;53.160;6.990;2023-09-08T13:01:57;28.50;94.50
52621;DHT22;38515;53.160;6.990;2023-09-08T13:04:23;28.50;95.10
52621;DHT22;38515;53.160;6.990;2023-09-08T13:06:50;28.50;95.10
52621;DHT22;38515;53.160;6.990;2023-09-08T13:09:16;28.50;94.70
52621;DHT22;38515;53.160;6.990;2023-09-08T13:11:42;28.50;94.80
52621;DHT22;38515;53.160;6.990;2023-09-08T13:14:10;28.50;93.70
52621;DHT22;38515;53.160;6.990;2023-09-08T13:16:35;28.50;93.80
52621;DHT22;38515;53.160;6.990;2023-09-08T13:19:01;28.50;94.00
52621;DHT22;38515;53.160;6.990;2023-09-08T13:21:27;28.60;93.80
52621;DHT22;38515;53.160;6.990;2023-09-08T13:23:53;28.60;93.60
52621;DHT22;38515;53.160;6.990;2023-09-08T13:26:19;28.60;93.10
52621;DHT22;38515;53.160;6.990;2023-09-08T13:28:45;28.70;92.80
52621;DHT22;38515;53.160;6.990;2023-09-08T13:31:11;28.70;92.70
52621;DHT22;38515;53.160;6.990;2023-09-08T13:33:37;28.70;93.20
52621;DHT22;38515;53.160;6.990;2023-09-08T13:36:03;28.70;93.40
52621;DHT22;38515;53.160;6.990;2023-09-08T13:38:28;28.60;92.50
52621;DHT22;38515;53.160;6.990;2023-09-08T13:40:54;28.70;91.80
52621;DHT22;38515;53.160;6.990;2023-09-08T13:43:20;28.70;91.50
52621;DHT22;38515;53.160;6.990;2023-09-08T13:45:47;28.70;91.70
52621;DHT22;38515;53.160;6.990;2023-09-08T13:48:12;28.70;92.30
52621;DHT22;38515;53.160;6.990;2023-09-08T13:50:38;28.70;92.10
52621;DHT22;38515;53.160;6.990;2023-09-08T13:53:06;28.80;92.20
52621;DHT22;38515;53.160;6.990;2023-09-08T13:55:32;28.70;91.90
52621;DHT22;38515;53.160;6.990;2023-09-08T13:57:58;28.70;92.10
52621;DHT22;38515;53.160;6.990;2023-09-08T14:00:27;28.70;93.00
52621;DHT22;38515;53.160;6.990;2023-09-08T14:02:52;28.60;93.00
52621;DHT22;38515;53.160;6.990;2023-09-08T14:05:19;28.60;93.60
52621;DHT22;38515;53.160;6.990;2023-09-08T14:07:44;28.60;92.70
52621;DHT22;38515;53.160;6.990;2023-09-08T14:10:10;28.60;92.40
52621;DHT22;38515;53.160;6.990;2023-09-08T14:12:36;28.60;93.00
52621;DHT22;38515;53.160;6.990;2023-09-08T14:15:03;28.60;94.30
52621;DHT22;38515;53.160;6.990;2023-09-08T14:17:29;28.50;94.50
52621;DHT22;38515;53.160;6.990;2023-09-08T14:19:55;28.50;95.20
52621;DHT22;38515;53.160;6.990;2023-09-08T14:22:21;28.40;95.20
52621;DHT22;38515;53.160;6.990;2023-09-08T14:24:48;28.40;94.90
52621;DHT22;38515;53.160;6.990;2023-09-08T14:27:13;28.40;95.80
52621;DHT22;38515;53.160;6.990;2023-09-08T14:29:39;28.30;96.10
52621;DHT22;38515;53.160;6.990;2023-09-08T14:32:05;28.20;95.00
52621;DHT22;38515;53.160;6.990;2023-09-08T14:34:31;28.30;94.30
52621;DHT22;38515;53.160;6.990;2023-09-08T14:36:57;28.30;94.10
52621;DHT22;38515;53.160;6.990;2023-09-08T14:39:23;28.20;93.80
52621;DHT22;38515;53.160;6.990;2023-09-08T14:41:51;28.20;94.50
52621;DHT22;38515;53.160;6.990;2023-09-08T14:44:19;28.30;95.20
52621;DHT22;38515;53.160;6.990;2023-09-08T14:46:46;28.20;95.30
52621;DHT22;38515;53.160;6.990;2023-09-08T14:49:13;28.20;95.80
52621;DHT22;38515;53.160;6.990;2023-09-08T14:51:41;28.10;96.30
52621;DHT22;38515;53.160;6.990;2023-09-08T14:54:09;28.10;96.80
52621;DHT22;38515;53.160;6.990;2023-09-08T14:56:34;28.10;96.90
52621;DHT22;38515;53.160;6.990;2023-09-08T14:59:00;28.10;96.90
52621;DHT22;38515;53.160;6.990;2023-09-08T15:01:26;28.10;96.90
52621;DHT22;38515;53.160;6.990;2023-09-08T15:03:52;28.10;96.50
52621;DHT22;38515;53.160;6.990;2023-09-08T15:06:20;28.10;97.30
52621;DHT22;38515;53.160;6.990;2023-09-08T15:08:46;28.00;96.70
52621;DHT22;38515;53.160;6.990;2023-09-08T15:11:13;28.00;97.00
52621;DHT22;38515;53.160;6.990;2023-09-08T15:13:39;27.90;97.40
52621;DHT22;38515;53.160;6.990;2023-09-08T15:16:05;27.90;98.00
52621;DHT22;38515;53.160;6.990;2023-09-08T15:18:34;27.90;98.10
52621;DHT22;38515;53.160;6.990;2023-09-08T15:21:00;27.90;97.90
52621;DHT22;38515;53.160;6.990;2023-09-08T15:23:26;27.90;98.10
52621;DHT22;38515;53.160;6.990;2023-09-08T15:25:55;27.80;98.40
52621;DHT22;38515;53.160;6.990;2023-09-08T15:28:21;27.80;97.40
52621;DHT22;38515;53.160;6.990;2023-09-08T15:30:48;27.80;97.10
52621;DHT22;38515;53.160;6.990;2023-09-08T15:33:14;27.80;97.10
52621;DHT22;38515;53.160;6.990;2023-09-08T15:35:44;27.80;98.10
52621;DHT22;38515;53.160;6.990;2023-09-08T15:38:10;27.70;98.20
52621;DHT22;38515;53.160;6.990;2023-09-08T15:43:38;27.70;97.60